Time;durP1;ratioP1;P1;durP2;ratioP2;P2;SDS_P1;SDS_P2;PMS_P1;PMS_P2;Temp;Humidity;BMP_temperature;BMP_pressure;BME280_temperature;BME280_humidity;BME280_pressure;Samples;Min_cycle;Max_cycle;Signal;HPM_P1;HPM_P2
2021/06/22 00:01:04;;;;;;;3.38;1.50;;;24.00;63.10;;;;;;4996378;28;20421;-41
2021/06/22 00:03:30;;;;;;;2.55;1.50;;;24.00;63.10;;;;;;4994745;28;20042;-41
2021/06/22 00:05:56;;;;;;;3.00;1.75;;;24.00;62.90;;;;;;4994916;28;20611;-41
2021/06/22 00:08:21;;;;;;;4.07;1.75;;;24.00;62.90;;;;;;4991497;28;20101;-42
2021/06/22 00:10:47;;;;;;;2.22;1.60;;;24.00;62.80;;;;;;4993971;28;20081;-41
2021/06/22 00:13:13;;;;;;;5.10;1.80;;;24.10;62.70;;;;;;5010071;28;20441;-41
2021/06/22 00:15:38;;;;;;;2.10;1.63;;;24.00;62.70;;;;;;5001066;28;20141;-41
2021/06/22 00:18:04;;;;;;;2.58;1.80;;;24.00;62.70;;;;;;5001732;28;20050;-36
2021/06/22 00:20:30;;;;;;;2.78;1.80;;;24.10;62.40;;;;;;4999024;28;20050;-37
2021/06/22 00:22:55;;;;;;;3.13;1.90;;;24.10;62.50;;;;;;4999450;28;20092;-37
2021/06/22 00:25:22;;;;;;;4.22;1.75;;;24.10;62.60;;;;;;5002172;28;20104;-36
2021/06/22 00:27:49;;;;;;;1.83;1.67;;;24.10;62.70;;;;;;5001252;28;20046;-36
2021/06/22 00:30:15;;;;;;;2.97;1.85;;;24.10;62.60;;;;;;5000883;28;20057;-38
2021/06/22 00:32:41;;;;;;;2.90;1.67;;;24.10;62.60;;;;;;4980154;28;20045;-36
2021/06/22 00:35:07;;;;;;;2.40;1.83;;;24.00;62.60;;;;;;4997509;28;20050;-36
2021/06/22 00:37:33;;;;;;;1.95;1.42;;;24.00;62.60;;;;;;5000912;28;20062;-38
2021/06/22 00:39:58;;;;;;;2.42;1.48;;;24.00;62.60;;;;;;5004487;28;20066;-38
2021/06/22 00:42:24;;;;;;;2.25;1.67;;;24.00;62.60;;;;;;5006255;28;20469;-37
2021/06/22 00:44:52;;;;;;;3.15;1.48;;;24.00;62.60;;;;;;5001610;28;20089;-38
2021/06/22 00:47:18;;;;;;;2.13;1.80;;;24.00;62.70;;;;;;4997268;28;20133;-37
2021/06/22 00:49:44;;;;;;;2.22;1.73;;;24.00;62.80;;;;;;4999801;28;20508;-37
2021/06/22 00:52:10;;;;;;;3.28;1.80;;;23.90;62.80;;;;;;5001010;28;20133;-31
2021/06/22 00:54:36;;;;;;;2.97;1.73;;;23.90;62.90;;;;;;5001196;28;20048;-37
2021/06/22 00:57:05;;;;;;;1.67;1.23;;;23.90;62.90;;;;;;5001034;28;20408;-38
2021/06/22 00:59:30;;;;;;;2.55;1.77;;;24.00;62.80;;;;;;4999183;28;20108;-37
2021/06/22 01:01:56;;;;;;;1.90;1.77;;;23.90;62.90;;;;;;4998766;28;20114;-37
2021/06/22 01:04:22;;;;;;;1.92;1.48;;;23.90;63.00;;;;;;5017534;28;20026;-37
2021/06/22 01:06:47;;;;;;;2.90;1.75;;;23.90;62.90;;;;;;5002595;28;20533;-38
2021/06/22 01:09:13;;;;;;;2.90;1.85;;;23.90;63.00;;;;;;5002488;28;20031;-37
2021/06/22 01:11:38;;;;;;;1.85;1.63;;;23.90;63.00;;;;;;5001358;28;20036;-37
2021/06/22 01:14:04;;;;;;;1.48;1.38;;;23.80;63.00;;;;;;5014061;28;20026;-38
2021/06/22 01:16:30;;;;;;;2.33;1.70;;;23.80;63.80;;;;;;5002096;28;20033;-37
2021/06/22 01:19:06;;;;;;;1.77;1.67;;;23.80;63.10;;;;;;5002490;28;20019;-37
2021/06/22 01:21:32;;;;;;;1.58;1.48;;;23.80;63.20;;;;;;5002411;28;20077;-37
2021/06/22 01:24:08;;;;;;;2.30;1.45;;;23.80;63.30;;;;;;5003815;28;20030;-38
2021/06/22 01:26:34;;;;;;;1.73;1.52;;;23.80;63.30;;;;;;4997303;28;20643;-37
2021/06/22 01:29:00;;;;;;;1.70;1.52;;;23.80;63.30;;;;;;4996174;28;20474;-37
2021/06/22 01:31:26;;;;;;;1.85;1.50;;;23.80;63.40;;;;;;4999281;28;20046;-38
2021/06/22 01:33:52;;;;;;;2.30;1.88;;;23.80;63.30;;;;;;4999117;28;20105;-38
2021/06/22 01:36:20;;;;;;;1.55;1.45;;;23.80;63.30;;;;;;4998971;28;20030;-37
2021/06/22 01:38:46;;;;;;;2.05;1.50;;;23.80;63.30;;;;;;4999083;28;20029;-38
2021/06/22 01:41:12;;;;;;;2.05;1.70;;;23.70;63.30;;;;;;5003611;28;20025;-37
2021/06/22 01:43:37;;;;;;;1.73;1.40;;;23.70;63.40;;;;;;4998925;28;20030;-37
2021/06/22 01:46:04;;;;;;;2.33;1.55;;;23.70;64.20;;;;;;4998769;28;20037;-38
2021/06/22 01:48:30;;;;;;;1.70;1.23;;;23.80;63.40;;;;;;4998915;28;20055;-41
2021/06/22 01:50:55;;;;;;;1.50;1.38;;;23.80;63.40;;;;;;4998613;28;20050;-41
2021/06/22 01:53:21;;;;;;;2.03;1.75;;;23.80;63.40;;;;;;4995606;28;20037;-41
2021/06/22 01:55:50;;;;;;;2.20;1.73;;;23.70;63.40;;;;;;4996730;28;20564;-41
2021/06/22 01:58:16;;;;;;;2.53;1.45;;;23.70;63.40;;;;;;5008389;28;20041;-42
2021/06/22 02:00:44;;;;;;;1.60;1.50;;;23.70;63.40;;;;;;5001830;28;20030;-40
2021/06/22 02:03:14;;;;;;;2.95;1.55;;;23.70;63.40;;;;;;4998594;28;20022;-41
2021/06/22 02:05:39;;;;;;;1.63;1.52;;;23.70;63.40;;;;;;4997983;28;20041;-40
2021/06/22 02:08:05;;;;;;;1.67;1.58;;;23.70;63.40;;;;;;4995076;28;20543;-42
2021/06/22 02:10:30;;;;;;;1.55;1.45;;;23.70;63.30;;;;;;4998450;28;20034;-41
2021/06/22 02:12:56;;;;;;;2.33;1.88;;;23.70;63.40;;;;;;4998227;28;20518;-37
2021/06/22 02:15:21;;;;;;;2.55;1.77;;;23.70;63.40;;;;;;4998371;28;20126;-41
2021/06/22 02:17:47;;;;;;;2.53;1.85;;;23.70;63.40;;;;;;4998289;28;20084;-41
2021/06/22 02:20:14;;;;;;;1.73;1.58;;;23.70;63.40;;;;;;4994218;28;20029;-41
2021/06/22 02:22:39;;;;;;;1.80;1.70;;;23.70;63.40;;;;;;5009280;28;20018;-42
2021/06/22 02:25:06;;;;;;;1.50;1.40;;;23.70;63.30;;;;;;4999812;28;20091;-41
2021/06/22 02:27:32;;;;;;;1.73;1.63;;;23.70;63.30;;;;;;5013266;28;20042;-42
2021/06/22 02:29:58;;;;;;;1.23;1.08;;;23.70;63.40;;;;;;4997658;28;20040;-41
2021/06/22 02:32:24;;;;;;;1.95;1.50;;;23.70;63.40;;;;;;4995394;28;20034;-42
2021/06/22 02:34:49;;;;;;;1.70;1.60;;;23.70;64.20;;;;;;4995881;28;20022;-41
2021/06/22 02:37:15;;;;;;;1.63;1.35;;;23.70;63.30;;;;;;4998712;28;20396;-36
2021/06/22 02:39:40;;;;;;;1.67;1.50;;;23.70;63.30;;;;;;4997952;28;20567;-36
2021/06/22 02:42:06;;;;;;;1.60;1.50;;;23.70;63.20;;;;;;5006404;28;20033;-36
2021/06/22 02:44:32;;;;;;;2.10;1.90;;;23.70;63.00;;;;;;4995974;28;20077;-36
2021/06/22 02:46:57;;;;;;;1.65;1.55;;;23.70;63.10;;;;;;4994976;28;20026;-36
2021/06/22 02:49:23;;;;;;;2.05;1.85;;;23.80;63.20;;;;;;4997752;28;20049;-36
2021/06/22 02:51:49;;;;;;;1.75;1.65;;;23.70;63.00;;;;;;4997564;28;20080;-36
2021/06/22 02:54:14;;;;;;;2.00;1.75;;;23.80;63.20;;;;;;5012638;28;20019;-37
2021/06/22 02:56:40;;;;;;;3.50;1.42;;;23.70;63.30;;;;;;4997056;28;20044;-37
2021/06/22 02:59:05;;;;;;;1.85;1.60;;;23.70;63.30;;;;;;4993980;28;20041;-36
2021/06/22 03:01:31;;;;;;;1.70;1.60;;;23.70;63.30;;;;;;4997709;28;20113;-37
2021/06/22 03:03:56;;;;;;;1.70;1.60;;;23.70;63.30;;;;;;4996570;28;20026;-35
2021/06/22 03:06:22;;;;;;;3.22;1.88;;;23.70;63.40;;;;;;4997339;28;20074;-36
2021/06/22 03:08:48;;;;;;;1.80;1.70;;;23.60;63.40;;;;;;4997372;28;20472;-37
2021/06/22 03:11:13;;;;;;;2.65;1.90;;;23.70;63.50;;;;;;4993033;28;20096;-37
2021/06/22 03:13:39;;;;;;;2.15;1.85;;;23.60;63.50;;;;;;5008197;28;20583;-36
2021/06/22 03:16:04;;;;;;;1.90;1.80;;;23.60;63.50;;;;;;4997616;28;20035;-36
2021/06/22 03:18:30;;;;;;;1.70;1.48;;;23.70;63.40;;;;;;4997303;28;20019;-38
2021/06/22 03:20:55;;;;;;;1.77;1.67;;;23.70;63.40;;;;;;4996882;28;20037;-39
2021/06/22 03:23:21;;;;;;;1.80;1.70;;;23.60;63.40;;;;;;4995619;28;20026;-38
2021/06/22 03:25:47;;;;;;;2.25;1.60;;;23.60;63.50;;;;;;4995356;28;20506;-38
2021/06/22 03:28:12;;;;;;;1.63;1.52;;;23.60;63.60;;;;;;4997793;28;20026;-39
2021/06/22 03:30:39;;;;;;;2.47;1.95;;;23.60;63.60;;;;;;4989067;28;20412;-39
2021/06/22 03:33:05;;;;;;;1.52;1.42;;;23.60;63.40;;;;;;5005517;28;20503;-39
2021/06/22 03:35:30;;;;;;;1.98;1.52;;;23.60;63.30;;;;;;4994422;28;20034;-39
2021/06/22 03:37:56;;;;;;;2.33;1.70;;;23.60;63.40;;;;;;4994673;28;20022;-39
2021/06/22 03:40:22;;;;;;;2.17;1.98;;;23.60;63.40;;;;;;5002926;28;20503;-39
2021/06/22 03:42:48;;;;;;;1.83;1.60;;;23.60;63.30;;;;;;4999852;28;20018;-36
2021/06/22 03:45:14;;;;;;;1.90;1.80;;;23.70;63.20;;;;;;4996583;28;20034;-36
2021/06/22 03:47:39;;;;;;;2.50;1.50;;;23.70;63.20;;;;;;4995865;28;20022;-35
2021/06/22 03:50:06;;;;;;;2.10;1.90;;;23.60;63.20;;;;;;4992361;28;20060;-36
2021/06/22 03:52:31;;;;;;;2.53;1.85;;;23.60;63.20;;;;;;4996732;28;20178;-36
2021/06/22 03:54:57;;;;;;;1.98;1.88;;;23.60;63.20;;;;;;4996710;28;20109;-34
2021/06/22 03:57:23;;;;;;;2.47;1.83;;;23.60;63.30;;;;;;4996442;28;20374;-36
2021/06/22 03:59:50;;;;;;;1.90;1.80;;;23.60;63.30;;;;;;4996414;28;20026;-37
2021/06/22 04:02:16;;;;;;;2.00;1.90;;;23.60;63.50;;;;;;4975959;28;20072;-37
2021/06/22 04:04:41;;;;;;;2.00;1.90;;;23.60;63.50;;;;;;4995999;28;20042;-36
2021/06/22 04:07:07;;;;;;;1.90;1.80;;;23.50;63.60;;;;;;4996526;28;20089;-38
2021/06/22 04:09:33;;;;;;;1.95;1.70;;;23.60;63.30;;;;;;4996607;28;20034;-38
2021/06/22 04:11:58;;;;;;;2.45;2.03;;;23.60;63.40;;;;;;4996458;28;20526;-38
2021/06/22 04:14:24;;;;;;;1.83;1.73;;;23.60;63.30;;;;;;4993245;28;20026;-41
2021/06/22 04:16:49;;;;;;;1.83;1.73;;;23.60;63.20;;;;;;4994298;28;20034;-42
2021/06/22 04:19:15;;;;;;;2.00;1.90;;;23.70;63.10;;;;;;5005858;28;20161;-42
2021/06/22 04:21:41;;;;;;;2.30;2.13;;;23.70;63.00;;;;;;4999965;28;20022;-41
2021/06/22 04:24:06;;;;;;;1.70;1.60;;;23.70;62.90;;;;;;4998083;28;20062;-42
2021/06/22 04:26:32;;;;;;;2.70;1.77;;;23.70;63.00;;;;;;4995882;28;20033;-43
2021/06/22 04:28:58;;;;;;;2.22;1.73;;;23.80;63.20;;;;;;5008791;28;20036;-41
2021/06/22 04:31:23;;;;;;;1.83;1.65;;;23.80;62.50;;;;;;5008281;28;20038;-43
2021/06/22 04:33:49;;;;;;;2.00;1.90;;;23.80;62.50;;;;;;5006186;28;20021;-45
2021/06/22 04:36:15;;;;;;;1.85;1.75;;;23.80;62.50;;;;;;5005916;28;20488;-44
2021/06/22 04:38:41;;;;;;;2.40;1.85;;;23.80;62.50;;;;;;5006664;28;20463;-44
2021/06/22 04:41:07;;;;;;;1.80;1.70;;;23.90;62.50;;;;;;5008319;28;20030;-44
2021/06/22 04:43:33;;;;;;;2.22;1.67;;;23.70;62.40;;;;;;5010522;28;20022;-45
2021/06/22 04:45:59;;;;;;;1.95;1.85;;;23.70;62.70;;;;;;5007548;28;20049;-45
2021/06/22 04:48:25;;;;;;;1.77;1.67;;;23.80;62.60;;;;;;5008240;28;20484;-44
2021/06/22 04:50:58;;;;;;;1.92;1.52;;;23.80;62.30;;;;;;5003391;28;20050;-43
2021/06/22 04:53:26;;;;;;;2.00;1.90;;;23.80;62.50;;;;;;5025795;28;20022;-45
2021/06/22 04:55:55;;;;;;;1.85;1.75;;;23.70;62.60;;;;;;5006038;28;20500;-44
2021/06/22 04:58:24;;;;;;;1.70;1.60;;;23.70;63.50;;;;;;4992770;28;20033;-43
2021/06/22 05:00:50;;;;;;;2.00;1.50;;;23.70;62.90;;;;;;5008004;28;20476;-42
2021/06/22 05:03:19;;;;;;;1.83;1.65;;;23.60;63.40;;;;;;4997334;28;20038;-43
2021/06/22 05:05:56;;;;;;;4.22;1.58;;;23.60;63.20;;;;;;4995231;28;20040;-53
2021/06/22 05:08:22;;;;;;;1.65;1.55;;;23.60;63.00;;;;;;5008299;28;20034;-44
2021/06/22 05:10:51;;;;;;;1.58;1.48;;;23.80;62.60;;;;;;5011953;28;20488;-43
2021/06/22 05:13:17;;;;;;;1.60;1.50;;;23.90;62.00;;;;;;5032817;28;20032;-42
2021/06/22 05:15:42;;;;;;;2.03;1.60;;;23.90;62.00;;;;;;5009806;28;20022;-42
2021/06/22 05:18:08;;;;;;;1.48;1.38;;;23.80;61.80;;;;;;5007845;28;20508;-43
2021/06/22 05:20:33;;;;;;;1.40;1.30;;;23.60;62.80;;;;;;5012423;28;20037;-37
2021/06/22 05:22:59;;;;;;;1.20;1.20;;;23.50;63.10;;;;;;5014529;28;20526;-37
2021/06/22 05:25:25;;;;;;;1.33;1.23;;;23.40;63.30;;;;;;5013918;28;20038;-37
2021/06/22 05:27:50;;;;;;;1.83;1.70;;;23.70;62.70;;;;;;5012465;28;20400;-39
2021/06/22 05:30:16;;;;;;;1.52;1.42;;;23.70;62.40;;;;;;5012620;28;20405;-38
2021/06/22 05:32:42;;;;;;;2.83;1.60;;;23.90;61.90;;;;;;5012727;28;20095;-38
2021/06/22 05:35:08;;;;;;;1.40;1.30;;;23.80;61.90;;;;;;5012060;28;20023;-38
2021/06/22 05:37:34;;;;;;;1.70;1.60;;;23.80;62.30;;;;;;5014102;28;20033;-38
2021/06/22 05:40:00;;;;;;;1.80;1.25;;;23.80;62.10;;;;;;4994658;28;20052;-38
2021/06/22 05:42:25;;;;;;;1.38;1.27;;;23.90;61.90;;;;;;5012465;28;20026;-38
2021/06/22 05:44:51;;;;;;;1.67;1.40;;;23.90;61.50;;;;;;5012207;28;20484;-38
2021/06/22 05:47:16;;;;;;;1.40;1.30;;;23.90;61.80;;;;;;5012376;28;20501;-38
2021/06/22 05:49:42;;;;;;;1.42;1.30;;;23.70;62.10;;;;;;5014207;28;20126;-37
2021/06/22 05:52:08;;;;;;;1.50;1.40;;;23.80;62.00;;;;;;5012630;28;20554;-38
2021/06/22 05:54:33;;;;;;;1.20;1.10;;;23.80;61.80;;;;;;5010915;28;20128;-38
2021/06/22 05:56:59;;;;;;;1.80;1.70;;;23.80;61.70;;;;;;4995515;28;20030;-38
2021/06/22 05:59:25;;;;;;;1.65;1.55;;;23.70;61.90;;;;;;5013971;28;20030;-38
2021/06/22 06:01:50;;;;;;;1.67;1.45;;;23.70;62.00;;;;;;5013637;28;20058;-38
2021/06/22 06:04:16;;;;;;;1.23;1.13;;;23.70;62.10;;;;;;5012603;28;20096;-39
2021/06/22 06:06:41;;;;;;;1.40;1.30;;;23.70;61.90;;;;;;5013194;28;20026;-39
2021/06/22 06:09:07;;;;;;;1.48;1.38;;;23.80;61.80;;;;;;5013626;28;20026;-39
2021/06/22 06:11:32;;;;;;;1.30;1.20;;;23.80;61.60;;;;;;5013064;28;20109;-39
2021/06/22 06:13:58;;;;;;;1.50;1.40;;;23.70;61.90;;;;;;5013440;28;20022;-39
2021/06/22 06:16:24;;;;;;;1.42;1.33;;;23.70;61.90;;;;;;5011549;28;20044;-39
2021/06/22 06:18:49;;;;;;;1.42;1.33;;;23.60;62.10;;;;;;5013277;28;20025;-40
2021/06/22 06:21:15;;;;;;;1.17;1.17;;;23.60;61.90;;;;;;5012816;28;20117;-38
2021/06/22 06:23:43;;;;;;;1.20;1.10;;;23.60;62.10;;;;;;5013309;28;20021;-37
2021/06/22 06:26:11;;;;;;;1.05;1.02;;;23.50;62.20;;;;;;4996004;28;20057;-37
2021/06/22 06:28:43;;;;;;;1.70;1.60;;;23.50;62.30;;;;;;5013731;28;20030;-37
2021/06/22 06:31:09;;;;;;;1.45;1.20;;;23.50;62.30;;;;;;5012954;28;20042;-39
2021/06/22 06:33:34;;;;;;;1.55;1.40;;;23.60;62.20;;;;;;5013217;28;20405;-39
2021/06/22 06:36:00;;;;;;;1.70;1.60;;;23.60;62.10;;;;;;5012440;28;20037;-39
2021/06/22 06:38:25;;;;;;;1.35;1.25;;;23.50;62.10;;;;;;5013014;28;20033;-38
2021/06/22 06:40:51;;;;;;;1.48;1.38;;;23.50;62.10;;;;;;5013125;28;20120;-39
2021/06/22 06:43:16;;;;;;;1.17;1.13;;;23.60;62.10;;;;;;5013407;28;20025;-39
2021/06/22 06:45:42;;;;;;;1.15;1.13;;;23.50;62.20;;;;;;4994906;28;20033;-39
2021/06/22 06:48:08;;;;;;;1.27;1.17;;;23.60;62.10;;;;;;5012794;28;20018;-40
2021/06/22 06:50:34;;;;;;;1.33;1.23;;;23.50;62.10;;;;;;5012702;28;20049;-39
2021/06/22 06:53:00;;;;;;;1.75;1.60;;;23.50;62.10;;;;;;5012403;28;20026;-38
2021/06/22 06:55:26;;;;;;;1.20;1.10;;;23.50;62.00;;;;;;5013206;28;20073;-39
2021/06/22 06:57:56;;;;;;;1.17;1.08;;;23.60;62.00;;;;;;5012629;28;20036;-39
2021/06/22 07:00:22;;;;;;;2.03;1.38;;;23.60;61.80;;;;;;5012193;28;20038;-39
2021/06/22 07:02:48;;;;;;;1.10;1.05;;;23.70;61.50;;;;;;5012576;28;20030;-39
2021/06/22 07:05:14;;;;;;;2.10;1.63;;;23.80;61.30;;;;;;5012378;28;20106;-39
2021/06/22 07:07:39;;;;;;;1.20;1.20;;;23.80;61.30;;;;;;5013091;28;20057;-39
2021/06/22 07:10:05;;;;;;;1.70;1.23;;;23.70;61.30;;;;;;5012372;28;20046;-39
2021/06/22 07:12:31;;;;;;;1.38;1.27;;;23.70;61.50;;;;;;5012316;28;20485;-39
2021/06/22 07:14:56;;;;;;;1.20;1.10;;;23.70;61.20;;;;;;5012080;28;20048;-39
2021/06/22 07:17:22;;;;;;;1.33;1.23;;;23.60;61.30;;;;;;5012250;28;20026;-39
2021/06/22 07:19:47;;;;;;;1.10;1.10;;;23.70;61.20;;;;;;5012515;28;20022;-39
2021/06/22 07:22:13;;;;;;;1.02;1.02;;;23.70;61.10;;;;;;5012526;28;20037;-39
2021/06/22 07:24:39;;;;;;;1.27;1.17;;;23.80;60.90;;;;;;5011144;28;20021;-39
2021/06/22 07:27:04;;;;;;;1.20;1.20;;;23.80;60.90;;;;;;5011958;28;20092;-38
2021/06/22 07:29:30;;;;;;;1.20;1.20;;;23.80;60.90;;;;;;5011921;28;20080;-39
2021/06/22 07:31:56;;;;;;;2.25;1.20;;;23.80;60.90;;;;;;5012028;28;20038;-40
2021/06/22 07:34:21;;;;;;;1.17;1.13;;;23.70;60.90;;;;;;5012227;28;20479;-39
2021/06/22 07:36:47;;;;;;;1.27;1.17;;;23.80;60.90;;;;;;5011765;28;20022;-39
2021/06/22 07:39:12;;;;;;;1.23;0.98;;;23.80;60.70;;;;;;5011839;28;20026;-40
2021/06/22 07:41:38;;;;;;;1.13;0.90;;;23.80;60.80;;;;;;5011832;28;20068;-38
2021/06/22 07:44:04;;;;;;;0.90;0.90;;;23.70;60.90;;;;;;5011441;28;20038;-39
2021/06/22 07:46:31;;;;;;;1.08;1.00;;;23.70;60.90;;;;;;5011961;28;20116;-39
2021/06/22 07:48:56;;;;;;;0.93;0.93;;;23.70;60.90;;;;;;5011539;28;20109;-39
2021/06/22 07:51:22;;;;;;;0.85;0.85;;;23.70;60.80;;;;;;5011565;28;20080;-39
2021/06/22 07:53:48;;;;;;;0.95;0.85;;;23.70;60.80;;;;;;4994127;28;20461;-40
2021/06/22 07:56:13;;;;;;;1.08;1.08;;;23.80;60.60;;;;;;5011660;28;20026;-39
2021/06/22 07:58:39;;;;;;;1.02;0.90;;;23.70;60.80;;;;;;5012306;28;20029;-39
2021/06/22 08:01:05;;;;;;;1.17;1.17;;;23.70;61.10;;;;;;5011603;28;20042;-39
2021/06/22 08:03:30;;;;;;;1.02;1.00;;;23.60;61.10;;;;;;5011732;28;20074;-38
2021/06/22 08:05:56;;;;;;;0.80;0.80;;;23.70;61.10;;;;;;5011314;28;20116;-37
2021/06/22 08:08:23;;;;;;;0.85;0.85;;;23.80;60.90;;;;;;5011715;28;20033;-37
2021/06/22 08:10:51;;;;;;;1.00;0.85;;;23.70;61.60;;;;;;5011518;28;20022;-39
2021/06/22 08:13:16;;;;;;;0.80;0.80;;;23.80;60.70;;;;;;5010593;28;20033;-38
2021/06/22 08:15:42;;;;;;;1.42;0.70;;;23.80;60.60;;;;;;4993466;28;20036;-38
2021/06/22 08:18:08;;;;;;;0.90;0.90;;;23.80;60.50;;;;;;5011506;28;20034;-38
2021/06/22 08:20:34;;;;;;;0.90;0.65;;;23.80;60.60;;;;;;5011375;28;20038;-38
2021/06/22 08:23:01;;;;;;;0.70;0.70;;;23.80;60.60;;;;;;5011408;28;20077;-39
2021/06/22 08:25:27;;;;;;;1.00;1.00;;;23.70;60.70;;;;;;5011472;28;20105;-39
2021/06/22 08:27:53;;;;;;;0.70;0.70;;;23.70;60.70;;;;;;5011437;28;20100;-39
2021/06/22 08:30:19;;;;;;;0.70;0.70;;;23.60;60.70;;;;;;5010999;28;20053;-38
2021/06/22 08:32:45;;;;;;;1.08;0.70;;;23.70;60.80;;;;;;5011418;28;20474;-39
2021/06/22 08:35:11;;;;;;;1.10;1.00;;;23.60;60.70;;;;;;5012093;28;20116;-38
2021/06/22 08:37:37;;;;;;;0.82;0.82;;;23.70;60.90;;;;;;5015731;28;20101;-38
2021/06/22 08:40:04;;;;;;;0.63;0.63;;;23.70;60.70;;;;;;5014238;28;20029;-39
2021/06/22 08:42:29;;;;;;;0.75;0.75;;;23.70;60.60;;;;;;5014222;28;20499;-39
2021/06/22 08:44:55;;;;;;;0.60;0.60;;;23.60;60.50;;;;;;4996933;28;20028;-39
2021/06/22 08:47:25;;;;;;;1.42;0.60;;;23.70;60.80;;;;;;4981495;28;20037;-39
2021/06/22 08:49:52;;;;;;;0.63;0.60;;;23.60;60.50;;;;;;5014946;28;20088;-40
2021/06/22 08:52:23;;;;;;;0.90;0.90;;;23.70;60.70;;;;;;5014164;28;20220;-37
2021/06/22 08:54:49;;;;;;;1.25;0.60;;;23.70;60.60;;;;;;5013473;28;20033;-39
2021/06/22 08:57:15;;;;;;;0.70;0.70;;;23.70;60.40;;;;;;4993848;28;20026;-39
2021/06/22 08:59:42;;;;;;;0.50;0.50;;;23.70;60.60;;;;;;5013956;28;20034;-37
2021/06/22 09:02:07;;;;;;;1.58;0.60;;;23.60;60.50;;;;;;5013993;28;20054;-38
2021/06/22 09:04:33;;;;;;;0.60;0.60;;;23.60;60.50;;;;;;5006572;28;20369;-38
2021/06/22 09:06:58;;;;;;;0.77;0.77;;;23.60;60.70;;;;;;5014001;28;20032;-39
2021/06/22 09:09:33;;;;;;;0.70;0.70;;;23.70;60.70;;;;;;5014238;28;20022;-38
2021/06/22 09:12:09;;;;;;;0.80;0.70;;;23.60;60.40;;;;;;5012766;28;20502;-39
2021/06/22 09:14:41;;;;;;;0.70;0.70;;;23.60;60.70;;;;;;5012752;28;20404;-39
2021/06/22 09:17:07;;;;;;;0.60;0.60;;;23.60;60.40;;;;;;5010644;28;20044;-38
2021/06/22 09:19:33;;;;;;;0.50;0.50;;;23.60;60.40;;;;;;5028677;28;20026;-39
2021/06/22 09:22:19;;;;;;;0.50;0.50;;;23.60;60.50;;;;;;4995426;28;20042;-38
2021/06/22 09:25:02;;;;;;;0.52;0.52;;;23.50;60.80;;;;;;5011570;28;20480;-39
2021/06/22 09:27:47;;;;;;;0.60;0.60;;;23.50;60.90;;;;;;5024551;28;20519;-38
2021/06/22 09:30:13;;;;;;;0.70;0.70;;;23.60;60.80;;;;;;5005412;28;20064;-39
2021/06/22 09:32:39;;;;;;;0.60;0.60;;;23.60;60.80;;;;;;5012824;28;20460;-38
2021/06/22 09:35:20;;;;;;;0.60;0.60;;;23.70;60.80;;;;;;5011700;28;20072;-39
2021/06/22 09:37:55;;;;;;;0.80;0.80;;;23.60;60.70;;;;;;5014418;28;20113;-38
2021/06/22 09:40:27;;;;;;;0.65;0.65;;;23.70;60.70;;;;;;5013586;28;20562;-37
2021/06/22 09:42:54;;;;;;;0.70;0.70;;;23.70;60.60;;;;;;5013211;28;20030;-39
2021/06/22 09:45:21;;;;;;;0.55;0.55;;;23.70;60.50;;;;;;5011667;28;20018;-38
2021/06/22 09:47:46;;;;;;;0.75;0.75;;;23.70;60.50;;;;;;5013257;28;20488;-38
2021/06/22 09:50:33;;;;;;;0.60;0.60;;;23.70;60.60;;;;;;5013366;28;20049;-38
2021/06/22 09:53:29;;;;;;;0.52;0.52;;;23.60;60.60;;;;;;5014130;28;20061;-38
2021/06/22 09:55:55;;;;;;;0.50;0.50;;;23.60;60.70;;;;;;5009268;28;20033;-39
2021/06/22 09:58:42;;;;;;;0.65;0.50;;;23.80;60.50;;;;;;5013175;28;20080;-37
2021/06/22 10:01:27;;;;;;;0.43;0.43;;;23.70;60.40;;;;;;5012023;28;20404;-39
2021/06/22 10:03:54;;;;;;;0.60;0.60;;;23.80;60.50;;;;;;5010440;28;20092;-41
2021/06/22 10:06:20;;;;;;;0.40;0.40;;;23.70;61.20;;;;;;5013168;28;20060;-38
2021/06/22 10:08:56;;;;;;;0.45;0.45;;;23.70;60.50;;;;;;5012258;28;20113;-40
2021/06/22 10:11:28;;;;;;;0.65;0.45;;;23.70;60.60;;;;;;5011205;28;20077;-39
2021/06/22 10:13:54;;;;;;;0.90;0.60;;;23.70;60.70;;;;;;5012046;28;20091;-39
2021/06/22 10:16:24;;;;;;;0.60;0.60;;;23.70;60.60;;;;;;5027573;28;20026;-39
2021/06/22 10:18:50;;;;;;;0.40;0.40;;;23.70;60.70;;;;;;5011010;28;20045;-40
2021/06/22 10:21:16;;;;;;;0.40;0.40;;;23.60;60.60;;;;;;5027654;28;20036;-41
2021/06/22 10:23:42;;;;;;;0.50;0.50;;;23.70;60.60;;;;;;5012901;28;20048;-40
2021/06/22 10:26:07;;;;;;;0.40;0.40;;;23.70;60.70;;;;;;5012819;28;20528;-40
2021/06/22 10:28:33;;;;;;;0.52;0.52;;;23.70;61.50;;;;;;5025735;28;20021;-40
2021/06/22 10:30:59;;;;;;;0.50;0.50;;;23.60;60.80;;;;;;5012580;28;20030;-38
2021/06/22 10:33:25;;;;;;;0.40;0.40;;;23.40;61.40;;;;;;5012721;28;20037;-40
2021/06/22 10:35:51;;;;;;;0.40;0.40;;;23.20;62.10;;;;;;5012176;28;20034;-40
2021/06/22 10:38:19;;;;;;;0.50;0.50;;;23.10;62.50;;;;;;5012576;28;20053;-40
2021/06/22 10:40:44;;;;;;;0.40;0.40;;;23.00;62.70;;;;;;4977179;28;20510;-41
2021/06/22 10:43:10;;;;;;;0.30;0.30;;;23.00;62.70;;;;;;5012728;28;20022;-39
2021/06/22 10:45:55;;;;;;;2.35;0.47;;;23.00;62.80;;;;;;4994739;28;20447;-41
2021/06/22 10:48:20;;;;;;;0.50;0.50;;;23.00;63.00;;;;;;5012245;28;20022;-38
2021/06/22 10:50:46;;;;;;;0.50;0.50;;;23.00;63.60;;;;;;4994268;28;20135;-41
2021/06/22 10:53:11;;;;;;;0.40;0.40;;;23.10;62.90;;;;;;5008798;28;20029;-40
2021/06/22 10:55:41;;;;;;;0.63;0.50;;;23.10;63.00;;;;;;4990787;28;20026;-40
2021/06/22 10:58:08;;;;;;;0.30;0.20;;;23.00;62.90;;;;;;5008230;28;20040;-40
2021/06/22 11:00:49;;;;;;;0.38;0.38;;;23.00;63.20;;;;;;5008298;28;20057;-40
2021/06/22 11:03:21;;;;;;;0.45;0.45;;;23.00;63.10;;;;;;5007564;28;20377;-41
2021/06/22 11:05:47;;;;;;;0.50;0.50;;;23.00;63.10;;;;;;5006338;28;20468;-38
2021/06/22 11:08:12;;;;;;;0.43;0.43;;;23.00;63.50;;;;;;5008236;28;20100;-41
2021/06/22 11:10:42;;;;;;;2.03;0.80;;;23.00;63.80;;;;;;5008367;28;20081;-41
2021/06/22 11:13:08;;;;;;;0.57;0.43;;;23.00;64.10;;;;;;5006537;28;20022;-40
2021/06/22 11:15:46;;;;;;;0.40;0.40;;;23.00;63.20;;;;;;5007854;28;20037;-39
2021/06/22 11:18:17;;;;;;;0.57;0.50;;;23.10;63.20;;;;;;5006939;28;20053;-40
2021/06/22 11:20:54;;;;;;;0.40;0.32;;;23.00;63.10;;;;;;5007340;28;20045;-39
2021/06/22 11:23:23;;;;;;;0.30;0.30;;;23.00;63.10;;;;;;5007494;28;20404;-40
2021/06/22 11:26:04;;;;;;;0.98;0.50;;;23.00;63.00;;;;;;5008289;28;20049;-39
2021/06/22 11:28:59;;;;;;;0.63;0.30;;;23.00;63.00;;;;;;5007937;28;20018;-40
2021/06/22 11:31:49;;;;;;;0.50;0.50;;;23.00;63.20;;;;;;5007197;28;20471;-40
2021/06/22 11:34:16;;;;;;;0.40;0.40;;;23.00;63.00;;;;;;5006846;28;20444;-39
2021/06/22 11:36:52;;;;;;;0.50;0.50;;;23.00;63.10;;;;;;5007830;28;20068;-40
2021/06/22 11:39:19;;;;;;;0.30;0.30;;;23.00;62.90;;;;;;4990223;28;20068;-39
2021/06/22 11:42:07;;;;;;;3.10;0.40;;;23.00;63.00;;;;;;5005624;28;20034;-39
2021/06/22 11:44:34;;;;;;;0.40;0.38;;;23.00;62.90;;;;;;5022023;28;20038;-39
2021/06/22 11:47:00;;;;;;;0.30;0.30;;;23.00;62.80;;;;;;5007779;28;20044;-39
2021/06/22 11:49:48;;;;;;;0.50;0.50;;;23.10;62.70;;;;;;4989837;28;20022;-40
2021/06/22 11:52:15;;;;;;;0.30;0.30;;;23.10;62.70;;;;;;5006572;28;20025;-40
2021/06/22 11:54:47;;;;;;;0.40;0.40;;;23.10;62.70;;;;;;5007958;28;20034;-40
2021/06/22 11:57:29;;;;;;;0.45;0.45;;;23.10;62.50;;;;;;5007241;28;20033;-40
2021/06/22 11:59:56;;;;;;;0.50;0.50;;;23.10;62.50;;;;;;4989674;28;20516;-40
2021/06/22 12:02:22;;;;;;;0.30;0.30;;;23.10;62.50;;;;;;4988035;28;20570;-40
2021/06/22 12:04:48;;;;;;;0.30;0.30;;;23.10;62.50;;;;;;5007407;28;20017;-40
2021/06/22 12:07:15;;;;;;;0.35;0.35;;;23.10;62.40;;;;;;5007906;28;20384;-39
2021/06/22 12:09:41;;;;;;;0.40;0.40;;;23.10;62.30;;;;;;5007026;28;20077;-38
2021/06/22 12:12:07;;;;;;;0.60;0.30;;;23.10;62.20;;;;;;5006482;28;20416;-40
2021/06/22 12:14:33;;;;;;;0.50;0.50;;;23.10;62.00;;;;;;5007203;28;20025;-40
2021/06/22 12:16:59;;;;;;;0.32;0.32;;;23.20;62.90;;;;;;5007277;28;20044;-39
2021/06/22 12:19:25;;;;;;;0.30;0.30;;;23.20;62.90;;;;;;5007713;28;20032;-39
2021/06/22 12:21:52;;;;;;;0.35;0.35;;;23.10;62.10;;;;;;5006434;28;20033;-39
2021/06/22 12:24:19;;;;;;;0.30;0.30;;;23.10;62.10;;;;;;5007134;28;20022;-39
2021/06/22 12:26:50;;;;;;;2.28;0.40;;;23.20;62.10;;;;;;5007293;28;20037;-40
2021/06/22 12:29:20;;;;;;;0.47;0.47;;;23.20;62.10;;;;;;5006001;28;20026;-39
2021/06/22 12:32:11;;;;;;;0.40;0.30;;;23.20;62.10;;;;;;5005244;28;20067;-40
2021/06/22 12:34:39;;;;;;;0.40;0.40;;;23.20;61.90;;;;;;5003412;28;20161;-39
2021/06/22 12:37:08;;;;;;;0.40;0.40;;;23.20;61.90;;;;;;5006677;28;20592;-40
2021/06/22 12:39:39;;;;;;;0.40;0.40;;;23.20;61.80;;;;;;4990066;28;20022;-39
2021/06/22 12:42:09;;;;;;;0.43;0.43;;;23.20;61.80;;;;;;5004749;28;20034;-39
2021/06/22 12:44:35;;;;;;;0.25;0.25;;;23.20;61.80;;;;;;5007012;28;20366;-39
2021/06/22 12:47:08;;;;;;;0.40;0.40;;;23.20;61.70;;;;;;5007262;28;20030;-38
2021/06/22 12:49:35;;;;;;;0.77;0.50;;;23.20;61.60;;;;;;5006642;28;20128;-39